Coral Coast — WDF5120 — position and weather

sailwx.info

Track history (hours):
 
Tides and Currents Weather Stations Pressure Air Temp Water Temp Dewpoint Dewpoint Depression Visibility Wind Speed Wind Dir Waves Ship Positions

Coral Coast

Owner: Dann MarineTowing, LC., Chesapeake City, MD. More information available from US FCC via Universal Licensing System and Coast Guard Vessel Documentation Center.

Last reported at 2017-May-23 20:47 UTC. Time now 2017-May-24 07:57 UTC.
Position N 40°60' W 073°53'.

Length 70 m; draft 5.3 m.

Type: Tug. MMSI: 367459570.

Date/timePositionNaut miles runAvg speedWind from/ knotsBaromVisibWave heightAir tempDewpointWater temp
2017-May-23 20:47N 40°60' W 073°53'3 9.9
2017-May-23 20:30N 40°57' W 073°54'5 9.5
2017-May-23 20:00N 40°53' W 073°56'4 9.1
2017-May-23 19:31N 40°49' W 073°58'4 8.3
2017-May-23 19:01N 40°45' W 074°01'3 5.6
2017-May-23 18:31N 40°42' W 074°00'5 9.8
2017-May-23 18:00N 40°46' W 073°57'3 6.9
2017-May-23 17:30N 40°48' W 073°52'3 6.9
2017-May-23 17:00N 40°48' W 073°48'5 8.2
2017-May-23 16:21N 40°52' W 073°44'44 3.6
2017-May-23 04:22N 41°11' W 072°52'2 3.5
2017-May-23 03:54N 41°12' W 072°54'10 0.3
2017-May-21 16:16N 41°08' W 072°42'3 5.3
2017-May-21 15:40N 41°07' W 072°38'1 7.4
2017-May-21 15:30N 41°07' W 072°36'4 7.3
2017-May-21 15:00N 41°08' W 072°32'4 7.3
2017-May-21 14:30N 41°09' W 072°27'52 7.7
2017-May-21 07:46N 41°27' W 071°23'3 7.1
2017-May-21 07:20N 41°30' W 071°21'4 7.1
2017-May-21 06:50N 41°33' W 071°19'1 2.5
2017-May-21 06:30N 41°34' W 071°19'1 2.9
2017-May-21 06:00N 41°36' W 071°18'4 8.5
2017-May-21 05:30N 41°40' W 071°19'4 7.8
2017-May-21 05:00N 41°43' W 071°21'4 7.5
2017-May-21 04:30N 41°47' W 071°22'1 2.9
2017-May-21 04:00N 41°48' W 071°23'0 0.2
2017-May-21 03:30N 41°48' W 071°24'0 0.0
2017-May-20 17:50N 41°48' W 071°23'0 0.0
2017-May-20 17:24N 41°48' W 071°23'0 0.0
2017-May-20 12:42N 41°48' W 071°23'0 0.0
2017-May-20 12:21N 41°48' W 071°23'0 0.0
2017-May-20 11:30N 41°48' W 071°23'0 0.0
2017-May-20 07:58N 41°48' W 071°23'0 0.0
2017-May-20 07:19N 41°48' W 071°23'0 0.0
2017-May-20 06:58N 41°48' W 071°23'0 0.0
2017-May-20 06:27N 41°48' W 071°23'0 0.0
2017-May-20 05:59N 41°48' W 071°23'0 0.0
2017-May-20 05:22N 41°48' W 071°23'0 0.0
2017-May-20 05:00N 41°48' W 071°23'0 0.0
2017-May-20 04:26N 41°48' W 071°23'0 0.0
2017-May-20 03:50N 41°48' W 071°23'0 0.0
2017-May-20 03:18N 41°48' W 071°23'0 0.0
2017-May-20 02:57N 41°48' W 071°23'0 0.0
2017-May-20 02:23N 41°48' W 071°23'0 0.0
2017-May-20 02:00N 41°48' W 071°23'0 0.0
2017-May-20 00:52N 41°48' W 071°23'0 0.0
2017-May-20 00:23N 41°48' W 071°23'0 0.0
2017-May-20 00:00N 41°48' W 071°23'0 0.0
2017-May-19 23:25N 41°48' W 071°23'0 0.0
2017-May-19 22:59N 41°48' W 071°23'0 0.0
2017-May-19 17:32N 41°48' W 071°23'0 0.0
2017-May-19 17:24N 41°48' W 071°23'0 0.0
2017-May-19 16:12N 41°48' W 071°23'0 0.0
2017-May-19 15:57N 41°48' W 071°23'0 0.0
2017-May-19 14:54N 41°48' W 071°23'0 0.0
2017-May-19 13:55N 41°48' W 071°23'0 0.0
2017-May-19 13:20N 41°48' W 071°23'0 0.0
2017-May-19 12:59N 41°48' W 071°23'0 0.0
2017-May-19 12:29N 41°48' W 071°23'0 0.0
2017-May-19 11:59N 41°48' W 071°23'0 0.0
2017-May-19 11:27N 41°48' W 071°23'0 0.0
2017-May-19 11:00N 41°48' W 071°23'0 0.0
2017-May-19 10:29N 41°48' W 071°23'0 0.0
2017-May-19 10:00N 41°48' W 071°23'0 0.0
2017-May-19 09:30N 41°48' W 071°23'0 0.0
2017-May-19 09:00N 41°48' W 071°23'0 0.0
2017-May-19 08:28N 41°48' W 071°23'0 0.0
2017-May-19 08:00N 41°48' W 071°23'0 0.0
2017-May-19 07:30N 41°48' W 071°23'0 0.0
2017-May-19 06:59N 41°48' W 071°23'0 0.0
2017-May-19 06:29N 41°48' W 071°23'0 0.0
2017-May-19 05:58N 41°48' W 071°23'0 0.0
2017-May-19 05:30N 41°48' W 071°23'0 0.0
2017-May-19 05:00N 41°48' W 071°23'0 0.0
2017-May-19 04:30N 41°48' W 071°23'0 0.0
2017-May-19 03:59N 41°48' W 071°23'0 0.0
2017-May-19 03:22N 41°48' W 071°23'0 0.0
2017-May-19 02:57N 41°48' W 071°23'0 0.0
2017-May-19 02:26N 41°48' W 071°23'0 0.0
2017-May-19 02:00N 41°48' W 071°23'0 0.0
2017-May-19 01:30N 41°48' W 071°23'0 0.0
2017-May-19 01:00N 41°48' W 071°23'0 0.0
2017-May-19 00:29N 41°48' W 071°23'0 0.0
2017-May-19 00:00N 41°48' W 071°23'0 0.0
2017-May-18 23:29N 41°48' W 071°23'0 0.0
2017-May-18 22:59N 41°48' W 071°23'0 0.0
2017-May-18 22:30N 41°48' W 071°23'0 0.0
2017-May-18 22:00N 41°48' W 071°23'0 0.0
2017-May-18 21:25N 41°48' W 071°23'0 0.0
2017-May-18 16:05N 41°48' W 071°24'0 0.0
2017-May-18 13:18N 41°48' W 071°24'0 0.4
2017-May-18 13:00N 41°48' W 071°23'0 0.2
2017-May-18 12:28N 41°48' W 071°23'2 4.1
2017-May-18 12:00N 41°46' W 071°22'3 5.7
2017-May-18 11:30N 41°44' W 071°21'3 5.6
2017-May-18 11:00N 41°41' W 071°19'3 5.9
2017-May-18 10:30N 41°38' W 071°18'4 7.1
2017-May-18 09:55N 41°34' W 071°19'3 7.2
2017-May-18 09:30N 41°32' W 071°20'40 6.5
2017-May-18 03:23N 41°13' W 072°08'3 7.6
2017-May-18 03:00N 41°12' W 072°11'4 7.6
2017-May-18 02:29N 41°11' W 072°16'4 7.6
2017-May-18 02:00N 41°10' W 072°21'4 7.8
2017-May-18 01:30N 41°09' W 072°26'4 7.8
2017-May-18 01:00N 41°07' W 072°30'5 9.2
2017-May-18 00:30N 41°05' W 072°36'4 8.9
2017-May-18 00:00N 41°04' W 072°42'4 8.8
2017-May-17 23:30N 41°04' W 072°47'41 8.7
2017-May-17 18:46N 40°54' W 073°41'3 8.7
2017-May-17 18:25N 40°53' W 073°44'4 8.9
2017-May-17 18:00N 40°49' W 073°47'3 7.1
2017-May-17 17:30N 40°48' W 073°51'2 4.5
2017-May-17 17:00N 40°46' W 073°51'0 0.6
2017-May-17 16:30N 40°46' W 073°51'0 0.1
2017-May-17 16:00N 40°46' W 073°51'0 0.0
2017-May-17 15:30N 40°46' W 073°51'0 0.0
2017-May-17 15:00N 40°46' W 073°51'0 0.0
2017-May-17 14:00N 40°46' W 073°51'0 0.0
2017-May-17 13:30N 40°46' W 073°51'0 0.0
2017-May-17 13:00N 40°46' W 073°51'0 0.0
2017-May-17 12:30N 40°46' W 073°51'0 0.0
2017-May-17 12:00N 40°46' W 073°51'0 0.0
2017-May-17 11:30N 40°46' W 073°51'0 0.0
2017-May-17 11:00N 40°46' W 073°51'0 0.0
2017-May-17 10:30N 40°46' W 073°51'0 0.0
2017-May-17 10:00N 40°46' W 073°51'0 0.0
2017-May-17 09:30N 40°46' W 073°51'0 0.0
2017-May-17 09:00N 40°46' W 073°51'0 0.0
2017-May-17 08:30N 40°46' W 073°51'0 0.0
2017-May-17 08:00N 40°46' W 073°51'0 0.0
2017-May-17 07:30N 40°46' W 073°51'0 0.0
2017-May-17 07:00N 40°46' W 073°51'0 0.0
2017-May-17 06:30N 40°46' W 073°51'0 0.0
2017-May-17 06:00N 40°46' W 073°51'0 0.0
2017-May-17 05:30N 40°46' W 073°51'0 0.0
2017-May-17 05:00N 40°46' W 073°51'0 0.0
2017-May-17 04:30N 40°46' W 073°51'0 0.0
2017-May-17 04:00N 40°46' W 073°51'0 0.0
2017-May-17 03:29N 40°46' W 073°51'0 0.0
2017-May-17 03:00N 40°46' W 073°51'0 0.0
2017-May-17 02:30N 40°46' W 073°51'0 0.0
2017-May-17 02:00N 40°46' W 073°51'0 0.0
2017-May-17 01:30N 40°46' W 073°51'0 0.0
2017-May-17 01:00N 40°46' W 073°51'0 0.0
2017-May-17 00:30N 40°46' W 073°51'0 0.0
2017-May-17 00:00N 40°46' W 073°51'0 0.0
2017-May-16 23:30N 40°46' W 073°51'0 0.0
2017-May-16 23:00N 40°46' W 073°51'0 0.0
2017-May-16 22:30N 40°46' W 073°51'0 0.0
2017-May-16 22:00N 40°46' W 073°51'0 0.0
2017-May-16 21:30N 40°46' W 073°51'0 0.0
2017-May-16 21:00N 40°46' W 073°51'0 0.0
2017-May-16 20:30N 40°46' W 073°51'0 0.0
2017-May-16 20:00N 40°46' W 073°51'0 0.0
2017-May-16 19:30N 40°46' W 073°51'0 0.0
2017-May-16 19:00N 40°46' W 073°51'0 0.0
2017-May-16 18:30N 40°46' W 073°51'1 2.0
2017-May-16 18:00N 40°47' W 073°51'3 5.4
2017-May-16 17:30N 40°47' W 073°55'5 9.7
2017-May-16 17:00N 40°43' W 073°58'4 8.4
2017-May-16 16:30N 40°40' W 074°01'4 9.0
2017-May-16 16:00N 40°35' W 074°02'1 1.9
2017-May-16 15:30N 40°35' W 074°02'0 0.2
2017-May-16 15:00N 40°35' W 074°02'0 0.5
2017-May-16 14:30N 40°35' W 074°02'1 0.9
2017-May-16 13:30N 40°34' W 074°02'3 5.7
2017-May-16 13:00N 40°31' W 074°00'5 6.8
2017-May-16 12:15N 40°29' W 073°54'1 6.0
2017-May-16 12:00N 40°28' W 073°54'20 6.1
2017-May-16 08:39N 40°07' W 073°55'1 6.3
2017-May-16 08:26N 40°06' W 073°55'6 7.0
2017-May-16 07:37N 40°00' W 073°56'1 7.3
2017-May-16 07:27N 39°59' W 073°57'3 7.4
2017-May-16 07:00N 39°56' W 073°57'4 7.2
2017-May-16 06:29N 39°52' W 073°58'3 7.1
2017-May-16 06:00N 39°49' W 073°58'4 7.4
2017-May-16 05:27N 39°45' W 073°59'4 7.8
2017-May-16 04:59N 39°41' W 074°01'4 7.7
2017-May-16 04:30N 39°38' W 074°03'4 7.9
2017-May-16 04:00N 39°34' W 074°05'4 7.6
2017-May-16 03:30N 39°31' W 074°07'4 7.5
2017-May-16 03:00N 39°28' W 074°10'53 6.0
2017-May-15 18:03N 38°57' W 075°06'0 8.8
2017-May-15 18:00N 38°57' W 075°07'4 8.3
2017-May-15 17:30N 39°01' W 075°09'4 8.2
2017-May-15 17:00N 39°05' W 075°11'3 6.8
2017-May-15 16:30N 39°08' W 075°13'4 7.2
2017-May-15 16:00N 39°11' W 075°16'4 7.2
2017-May-15 15:30N 39°14' W 075°18'4 7.8
2017-May-15 15:00N 39°17' W 075°22'7 6.9
2017-May-15 14:00N 39°22' W 075°28'1 2.3
2017-May-15 13:30N 39°23' W 075°29'3 5.3
2017-May-15 13:00N 39°25' W 075°31'4 9.0
2017-May-15 12:30N 39°29' W 075°34'5 9.4
2017-May-15 12:01N 39°33' W 075°33'5 9.3
2017-May-15 11:30N 39°38' W 075°35'5 9.1
2017-May-15 11:00N 39°41' W 075°31'5 9.1
2017-May-15 10:30N 39°45' W 075°29'4 8.9
2017-May-15 10:00N 39°48' W 075°25'4 8.6
2017-May-15 09:30N 39°51' W 075°20'4 8.2
2017-May-15 09:00N 39°51' W 075°15'4 7.7
2017-May-15 08:30N 39°53' W 075°10'3 5.8
2017-May-15 08:00N 39°55' W 075°08'0 0.2
2017-May-15 07:30N 39°55' W 075°08'0 0.0
2017-May-15 07:00N 39°55' W 075°08'0 0.0
2017-May-15 06:30N 39°55' W 075°08'0 0.0
2017-May-15 06:00N 39°55' W 075°08'0 0.0
2017-May-15 05:30N 39°55' W 075°08'0 0.0
2017-May-15 05:00N 39°55' W 075°08'0 0.0
2017-May-15 04:30N 39°55' W 075°08'0 0.0
2017-May-15 04:00N 39°55' W 075°08'0 0.0
2017-May-15 03:30N 39°55' W 075°08'0 0.0
2017-May-15 03:00N 39°55' W 075°08'0 0.0
2017-May-15 02:30N 39°55' W 075°08'0 0.0
2017-May-15 02:00N 39°55' W 075°08'0 0.1
2017-May-15 01:30N 39°55' W 075°08'0 0.0
2017-May-15 01:00N 39°55' W 075°08'0 0.0
2017-May-15 00:30N 39°55' W 075°08'0 0.0
2017-May-15 00:00N 39°55' W 075°08'0 0.0
2017-May-14 23:30N 39°55' W 075°08'0 0.0
2017-May-14 23:00N 39°55' W 075°08'0 0.0
2017-May-14 22:30N 39°55' W 075°08'0 0.0
2017-May-14 22:00N 39°55' W 075°08'0 0.0
2017-May-14 21:30N 39°55' W 075°08'0 0.0
2017-May-14 21:00N 39°55' W 075°08'0 0.0
2017-May-14 20:30N 39°55' W 075°08'0 0.0
2017-May-14 20:00N 39°55' W 075°08'0 0.0
2017-May-14 19:30N 39°55' W 075°08'0 0.0
2017-May-14 19:00N 39°55' W 075°08'1 1.7
2017-May-14 18:30N 39°54' W 075°08'3 5.1
2017-May-14 18:00N 39°53' W 075°11'611.1
2017-May-14 17:30N 39°51' W 075°17'611.3
2017-May-14 17:00N 39°49' W 075°24'611.2
2017-May-14 16:30N 39°45' W 075°30'611.1
2017-May-14 16:01N 39°40' W 075°32'5 9.5
2017-May-14 15:30N 39°35' W 075°33'4 7.9
2017-May-14 15:00N 39°33' W 075°38'5 9.9
2017-May-14 14:30N 39°32' W 075°44'1110.6
2017-May-14 13:30N 39°29' W 075°57'510.5
2017-May-14 13:00N 39°25' W 076°02'510.4
2017-May-14 12:30N 39°22' W 076°08'5 9.1
2017-May-14 12:00N 39°19' W 076°12'5 8.0
2017-May-14 11:23N 39°15' W 076°14'3 8.4
2017-May-14 11:00N 39°12' W 076°16'4 8.6
2017-May-14 10:30N 39°08' W 076°19'4 7.4
2017-May-14 10:00N 39°05' W 076°19'4 8.6
2017-May-14 09:30N 39°01' W 076°22'6 9.7
2017-May-14 08:53N 38°56' W 076°25'4 9.4
2017-May-14 08:30N 38°52' W 076°26'45 9.0
2017-May-14 03:27N 38°07' W 076°16'5 9.4
2017-May-14 02:57N 38°03' W 076°15'  
Track history (hours):
 
Tides and Currents Weather Stations Pressure Air Temp Water Temp Dewpoint Dewpoint Depression Visibility Wind Speed Wind Dir Waves Ship Positions

Coral Coast

Owner: Dann MarineTowing, LC., Chesapeake City, MD. More information available from US FCC via Universal Licensing System and Coast Guard Vessel Documentation Center.

Last reported at 2017-May-23 20:47 UTC. Time now 2017-May-24 07:57 UTC.
Position N 40°60' W 073°53'.

Length 70 m; draft 5.3 m.

Type: Tug. MMSI: 367459570.

Date/timePositionNaut miles runAvg speedWind from/ knotsBaromVisibWave heightAir tempDewpointWater temp
2017-May-23 20:47N 40°60' W 073°53'3 9.9
2017-May-23 20:30N 40°57' W 073°54'5 9.5
2017-May-23 20:00N 40°53' W 073°56'4 9.1
2017-May-23 19:31N 40°49' W 073°58'4 8.3
2017-May-23 19:01N 40°45' W 074°01'3 5.6
2017-May-23 18:31N 40°42' W 074°00'5 9.8
2017-May-23 18:00N 40°46' W 073°57'3 6.9
2017-May-23 17:30N 40°48' W 073°52'3 6.9
2017-May-23 17:00N 40°48' W 073°48'5 8.2
2017-May-23 16:21N 40°52' W 073°44'44 3.6
2017-May-23 04:22N 41°11' W 072°52'2 3.5
2017-May-23 03:54N 41°12' W 072°54'10 0.3
2017-May-21 16:16N 41°08' W 072°42'3 5.3
2017-May-21 15:40N 41°07' W 072°38'1 7.4
2017-May-21 15:30N 41°07' W 072°36'4 7.3
2017-May-21 15:00N 41°08' W 072°32'4 7.3
2017-May-21 14:30N 41°09' W 072°27'52 7.7
2017-May-21 07:46N 41°27' W 071°23'3 7.1
2017-May-21 07:20N 41°30' W 071°21'4 7.1
2017-May-21 06:50N 41°33' W 071°19'1 2.5
2017-May-21 06:30N 41°34' W 071°19'1 2.9
2017-May-21 06:00N 41°36' W 071°18'4 8.5
2017-May-21 05:30N 41°40' W 071°19'4 7.8
2017-May-21 05:00N 41°43' W 071°21'4 7.5
2017-May-21 04:30N 41°47' W 071°22'1 2.9
2017-May-21 04:00N 41°48' W 071°23'0 0.2
2017-May-21 03:30N 41°48' W 071°24'0 0.0
2017-May-20 17:50N 41°48' W 071°23'0 0.0
2017-May-20 17:24N 41°48' W 071°23'0 0.0
2017-May-20 12:42N 41°48' W 071°23'0 0.0
2017-May-20 12:21N 41°48' W 071°23'0 0.0
2017-May-20 11:30N 41°48' W 071°23'0 0.0
2017-May-20 07:58N 41°48' W 071°23'0 0.0
2017-May-20 07:19N 41°48' W 071°23'0 0.0
2017-May-20 06:58N 41°48' W 071°23'0 0.0
2017-May-20 06:27N 41°48' W 071°23'0 0.0
2017-May-20 05:59N 41°48' W 071°23'0 0.0
2017-May-20 05:22N 41°48' W 071°23'0 0.0
2017-May-20 05:00N 41°48' W 071°23'0 0.0
2017-May-20 04:26N 41°48' W 071°23'0 0.0
2017-May-20 03:50N 41°48' W 071°23'0 0.0
2017-May-20 03:18N 41°48' W 071°23'0 0.0
2017-May-20 02:57N 41°48' W 071°23'0 0.0
2017-May-20 02:23N 41°48' W 071°23'0 0.0
2017-May-20 02:00N 41°48' W 071°23'0 0.0
2017-May-20 00:52N 41°48' W 071°23'0 0.0
2017-May-20 00:23N 41°48' W 071°23'0 0.0
2017-May-20 00:00N 41°48' W 071°23'0 0.0
2017-May-19 23:25N 41°48' W 071°23'0 0.0
2017-May-19 22:59N 41°48' W 071°23'0 0.0
2017-May-19 17:32N 41°48' W 071°23'0 0.0
2017-May-19 17:24N 41°48' W 071°23'0 0.0
2017-May-19 16:12N 41°48' W 071°23'0 0.0
2017-May-19 15:57N 41°48' W 071°23'0 0.0
2017-May-19 14:54N 41°48' W 071°23'0 0.0
2017-May-19 13:55N 41°48' W 071°23'0 0.0
2017-May-19 13:20N 41°48' W 071°23'0 0.0
2017-May-19 12:59N 41°48' W 071°23'0 0.0
2017-May-19 12:29N 41°48' W 071°23'0 0.0
2017-May-19 11:59N 41°48' W 071°23'0 0.0
2017-May-19 11:27N 41°48' W 071°23'0 0.0
2017-May-19 11:00N 41°48' W 071°23'0 0.0
2017-May-19 10:29N 41°48' W 071°23'0 0.0
2017-May-19 10:00N 41°48' W 071°23'0 0.0
2017-May-19 09:30N 41°48' W 071°23'0 0.0
2017-May-19 09:00N 41°48' W 071°23'0 0.0
2017-May-19 08:28N 41°48' W 071°23'0 0.0
2017-May-19 08:00N 41°48' W 071°23'0 0.0
2017-May-19 07:30N 41°48' W 071°23'0 0.0
2017-May-19 06:59N 41°48' W 071°23'0 0.0
2017-May-19 06:29N 41°48' W 071°23'0 0.0
2017-May-19 05:58N 41°48' W 071°23'0 0.0
2017-May-19 05:30N 41°48' W 071°23'0 0.0
2017-May-19 05:00N 41°48' W 071°23'0 0.0
2017-May-19 04:30N 41°48' W 071°23'0 0.0
2017-May-19 03:59N 41°48' W 071°23'0 0.0
2017-May-19 03:22N 41°48' W 071°23'0 0.0
2017-May-19 02:57N 41°48' W 071°23'0 0.0
2017-May-19 02:26N 41°48' W 071°23'0 0.0
2017-May-19 02:00N 41°48' W 071°23'0 0.0
2017-May-19 01:30N 41°48' W 071°23'0 0.0
2017-May-19 01:00N 41°48' W 071°23'0 0.0
2017-May-19 00:29N 41°48' W 071°23'0 0.0
2017-May-19 00:00N 41°48' W 071°23'0 0.0
2017-May-18 23:29N 41°48' W 071°23'0 0.0
2017-May-18 22:59N 41°48' W 071°23'0 0.0
2017-May-18 22:30N 41°48' W 071°23'0 0.0
2017-May-18 22:00N 41°48' W 071°23'0 0.0
2017-May-18 21:25N 41°48' W 071°23'0 0.0
2017-May-18 16:05N 41°48' W 071°24'0 0.0
2017-May-18 13:18N 41°48' W 071°24'0 0.4
2017-May-18 13:00N 41°48' W 071°23'0 0.2
2017-May-18 12:28N 41°48' W 071°23'2 4.1
2017-May-18 12:00N 41°46' W 071°22'3 5.7
2017-May-18 11:30N 41°44' W 071°21'3 5.6
2017-May-18 11:00N 41°41' W 071°19'3 5.9
2017-May-18 10:30N 41°38' W 071°18'4 7.1
2017-May-18 09:55N 41°34' W 071°19'3 7.2
2017-May-18 09:30N 41°32' W 071°20'40 6.5
2017-May-18 03:23N 41°13' W 072°08'3 7.6
2017-May-18 03:00N 41°12' W 072°11'4 7.6
2017-May-18 02:29N 41°11' W 072°16'4 7.6
2017-May-18 02:00N 41°10' W 072°21'4 7.8
2017-May-18 01:30N 41°09' W 072°26'4 7.8
2017-May-18 01:00N 41°07' W 072°30'5 9.2
2017-May-18 00:30N 41°05' W 072°36'4 8.9
2017-May-18 00:00N 41°04' W 072°42'4 8.8
2017-May-17 23:30N 41°04' W 072°47'41 8.7
2017-May-17 18:46N 40°54' W 073°41'3 8.7
2017-May-17 18:25N 40°53' W 073°44'4 8.9
2017-May-17 18:00N 40°49' W 073°47'3 7.1
2017-May-17 17:30N 40°48' W 073°51'2 4.5
2017-May-17 17:00N 40°46' W 073°51'0 0.6
2017-May-17 16:30N 40°46' W 073°51'0 0.1
2017-May-17 16:00N 40°46' W 073°51'0 0.0
2017-May-17 15:30N 40°46' W 073°51'0 0.0
2017-May-17 15:00N 40°46' W 073°51'0 0.0
2017-May-17 14:00N 40°46' W 073°51'0 0.0
2017-May-17 13:30N 40°46' W 073°51'0 0.0
2017-May-17 13:00N 40°46' W 073°51'0 0.0
2017-May-17 12:30N 40°46' W 073°51'0 0.0
2017-May-17 12:00N 40°46' W 073°51'0 0.0
2017-May-17 11:30N 40°46' W 073°51'0 0.0
2017-May-17 11:00N 40°46' W 073°51'0 0.0
2017-May-17 10:30N 40°46' W 073°51'0 0.0
2017-May-17 10:00N 40°46' W 073°51'0 0.0
2017-May-17 09:30N 40°46' W 073°51'0 0.0
2017-May-17 09:00N 40°46' W 073°51'0 0.0
2017-May-17 08:30N 40°46' W 073°51'0 0.0
2017-May-17 08:00N 40°46' W 073°51'0 0.0
2017-May-17 07:30N 40°46' W 073°51'0 0.0
2017-May-17 07:00N 40°46' W 073°51'0 0.0
2017-May-17 06:30N 40°46' W 073°51'0 0.0
2017-May-17 06:00N 40°46' W 073°51'0 0.0
2017-May-17 05:30N 40°46' W 073°51'0 0.0
2017-May-17 05:00N 40°46' W 073°51'0 0.0
2017-May-17 04:30N 40°46' W 073°51'0 0.0
2017-May-17 04:00N 40°46' W 073°51'0 0.0
2017-May-17 03:29N 40°46' W 073°51'0 0.0
2017-May-17 03:00N 40°46' W 073°51'0 0.0
2017-May-17 02:30N 40°46' W 073°51'0 0.0
2017-May-17 02:00N 40°46' W 073°51'0 0.0
2017-May-17 01:30N 40°46' W 073°51'0 0.0
2017-May-17 01:00N 40°46' W 073°51'0 0.0
2017-May-17 00:30N 40°46' W 073°51'0 0.0
2017-May-17 00:00N 40°46' W 073°51'0 0.0
2017-May-16 23:30N 40°46' W 073°51'0 0.0
2017-May-16 23:00N 40°46' W 073°51'0 0.0
2017-May-16 22:30N 40°46' W 073°51'0 0.0
2017-May-16 22:00N 40°46' W 073°51'0 0.0
2017-May-16 21:30N 40°46' W 073°51'0 0.0
2017-May-16 21:00N 40°46' W 073°51'0 0.0
2017-May-16 20:30N 40°46' W 073°51'0 0.0
2017-May-16 20:00N 40°46' W 073°51'0 0.0
2017-May-16 19:30N 40°46' W 073°51'0 0.0
2017-May-16 19:00N 40°46' W 073°51'0 0.0
2017-May-16 18:30N 40°46' W 073°51'1 2.0
2017-May-16 18:00N 40°47' W 073°51'3 5.4
2017-May-16 17:30N 40°47' W 073°55'5 9.7
2017-May-16 17:00N 40°43' W 073°58'4 8.4
2017-May-16 16:30N 40°40' W 074°01'4 9.0
2017-May-16 16:00N 40°35' W 074°02'1 1.9
2017-May-16 15:30N 40°35' W 074°02'0 0.2
2017-May-16 15:00N 40°35' W 074°02'0 0.5
2017-May-16 14:30N 40°35' W 074°02'1 0.9
2017-May-16 13:30N 40°34' W 074°02'3 5.7
2017-May-16 13:00N 40°31' W 074°00'5 6.8
2017-May-16 12:15N 40°29' W 073°54'1 6.0
2017-May-16 12:00N 40°28' W 073°54'20 6.1
2017-May-16 08:39N 40°07' W 073°55'1 6.3
2017-May-16 08:26N 40°06' W 073°55'6 7.0
2017-May-16 07:37N 40°00' W 073°56'1 7.3
2017-May-16 07:27N 39°59' W 073°57'3 7.4
2017-May-16 07:00N 39°56' W 073°57'4 7.2
2017-May-16 06:29N 39°52' W 073°58'3 7.1
2017-May-16 06:00N 39°49' W 073°58'4 7.4
2017-May-16 05:27N 39°45' W 073°59'4 7.8
2017-May-16 04:59N 39°41' W 074°01'4 7.7
2017-May-16 04:30N 39°38' W 074°03'4 7.9
2017-May-16 04:00N 39°34' W 074°05'4 7.6
2017-May-16 03:30N 39°31' W 074°07'4 7.5
2017-May-16 03:00N 39°28' W 074°10'53 6.0
2017-May-15 18:03N 38°57' W 075°06'0 8.8
2017-May-15 18:00N 38°57' W 075°07'4 8.3
2017-May-15 17:30N 39°01' W 075°09'4 8.2
2017-May-15 17:00N 39°05' W 075°11'3 6.8
2017-May-15 16:30N 39°08' W 075°13'4 7.2
2017-May-15 16:00N 39°11' W 075°16'4 7.2
2017-May-15 15:30N 39°14' W 075°18'4 7.8
2017-May-15 15:00N 39°17' W 075°22'7 6.9
2017-May-15 14:00N 39°22' W 075°28'1 2.3
2017-May-15 13:30N 39°23' W 075°29'3 5.3
2017-May-15 13:00N 39°25' W 075°31'4 9.0
2017-May-15 12:30N 39°29' W 075°34'5 9.4
2017-May-15 12:01N 39°33' W 075°33'5 9.3
2017-May-15 11:30N 39°38' W 075°35'5 9.1
2017-May-15 11:00N 39°41' W 075°31'5 9.1
2017-May-15 10:30N 39°45' W 075°29'4 8.9
2017-May-15 10:00N 39°48' W 075°25'4 8.6
2017-May-15 09:30N 39°51' W 075°20'4 8.2
2017-May-15 09:00N 39°51' W 075°15'4 7.7
2017-May-15 08:30N 39°53' W 075°10'3 5.8
2017-May-15 08:00N 39°55' W 075°08'0 0.2
2017-May-15 07:30N 39°55' W 075°08'0 0.0
2017-May-15 07:00N 39°55' W 075°08'0 0.0
2017-May-15 06:30N 39°55' W 075°08'0 0.0
2017-May-15 06:00N 39°55' W 075°08'0 0.0
2017-May-15 05:30N 39°55' W 075°08'0 0.0
2017-May-15 05:00N 39°55' W 075°08'0 0.0
2017-May-15 04:30N 39°55' W 075°08'0 0.0
2017-May-15 04:00N 39°55' W 075°08'0 0.0
2017-May-15 03:30N 39°55' W 075°08'0 0.0
2017-May-15 03:00N 39°55' W 075°08'0 0.0
2017-May-15 02:30N 39°55' W 075°08'0 0.0
2017-May-15 02:00N 39°55' W 075°08'0 0.1
2017-May-15 01:30N 39°55' W 075°08'0 0.0
2017-May-15 01:00N 39°55' W 075°08'0 0.0
2017-May-15 00:30N 39°55' W 075°08'0 0.0
2017-May-15 00:00N 39°55' W 075°08'0 0.0
2017-May-14 23:30N 39°55' W 075°08'0 0.0
2017-May-14 23:00N 39°55' W 075°08'0 0.0
2017-May-14 22:30N 39°55' W 075°08'0 0.0
2017-May-14 22:00N 39°55' W 075°08'0 0.0
2017-May-14 21:30N 39°55' W 075°08'0 0.0
2017-May-14 21:00N 39°55' W 075°08'0 0.0
2017-May-14 20:30N 39°55' W 075°08'0 0.0
2017-May-14 20:00N 39°55' W 075°08'0 0.0
2017-May-14 19:30N 39°55' W 075°08'0 0.0
2017-May-14 19:00N 39°55' W 075°08'1 1.7
2017-May-14 18:30N 39°54' W 075°08'3 5.1
2017-May-14 18:00N 39°53' W 075°11'611.1
2017-May-14 17:30N 39°51' W 075°17'611.3
2017-May-14 17:00N 39°49' W 075°24'611.2
2017-May-14 16:30N 39°45' W 075°30'611.1
2017-May-14 16:01N 39°40' W 075°32'5 9.5
2017-May-14 15:30N 39°35' W 075°33'4 7.9
2017-May-14 15:00N 39°33' W 075°38'5 9.9
2017-May-14 14:30N 39°32' W 075°44'1110.6
2017-May-14 13:30N 39°29' W 075°57'510.5
2017-May-14 13:00N 39°25' W 076°02'510.4
2017-May-14 12:30N 39°22' W 076°08'5 9.1
2017-May-14 12:00N 39°19' W 076°12'5 8.0
2017-May-14 11:23N 39°15' W 076°14'3 8.4
2017-May-14 11:00N 39°12' W 076°16'4 8.6
2017-May-14 10:30N 39°08' W 076°19'4 7.4
2017-May-14 10:00N 39°05' W 076°19'4 8.6
2017-May-14 09:30N 39°01' W 076°22'6 9.7
2017-May-14 08:53N 38°56' W 076°25'4 9.4
2017-May-14 08:30N 38°52' W 076°26'45 9.0
2017-May-14 03:27N 38°07' W 076°16'5 9.4
2017-May-14 02:57N 38°03' W 076°15'  

Dump ship's entire track history